Time;durP1;ratioP1;P1;durP2;ratioP2;P2;SDS_P1;SDS_P2;PMS_P1;PMS_P2;Temp;Humidity;BMP_temperature;BMP_pressure;BME280_temperature;BME280_humidity;BME280_pressure;Samples;Min_cycle;Max_cycle;Signal;HPM_P1;HPM_P2
2023/04/13 00:00:56;;;;;;;12.47;5.37;;;;;;;6.91;60.60;94405.41;5017758;28;20718;-72
2023/04/13 00:03:22;;;;;;;11.93;5.27;;;;;;;6.92;60.34;94407.03;5024449;28;21189;-72
2023/04/13 00:05:50;;;;;;;15.03;5.40;;;;;;;6.74;61.05;94404.91;5031472;28;20288;-72
2023/04/13 00:08:16;;;;;;;12.97;5.20;;;;;;;6.66;59.65;94409.44;5016384;28;20678;-72
2023/04/13 00:10:42;;;;;;;10.20;5.10;;;;;;;6.69;60.94;94409.84;5018453;28;20234;-72
2023/04/13 00:13:09;;;;;;;13.47;5.20;;;;;;;6.85;60.49;94416.59;5007404;28;20233;-72
2023/04/13 00:15:35;;;;;;;14.47;4.90;;;;;;;6.65;59.52;94421.63;5004569;28;20334;-72
2023/04/13 00:18:01;;;;;;;13.93;4.83;;;;;;;6.74;60.43;94424.88;5028737;28;20254;-73
2023/04/13 00:20:27;;;;;;;11.27;4.77;;;;;;;6.77;59.77;94427.94;5008374;28;20237;-72
2023/04/13 00:22:53;;;;;;;8.60;4.20;;;;;;;6.65;59.96;94426.03;5033569;28;20229;-72
2023/04/13 00:25:19;;;;;;;9.93;4.20;;;;;;;6.49;60.68;94431.50;5015988;28;20587;-72
2023/04/13 00:27:44;;;;;;;10.00;4.10;;;;;;;6.49;60.39;94429.69;5023798;28;20292;-73
2023/04/13 00:30:14;;;;;;;11.83;4.40;;;;;;;6.37;60.95;94427.78;5008214;28;20251;-72
2023/04/13 00:32:43;;;;;;;11.17;4.37;;;;;;;6.35;60.28;94429.75;5018482;28;20287;-72
2023/04/13 00:35:09;;;;;;;10.30;4.30;;;;;;;6.24;60.76;94430.22;5033460;28;20610;-73
2023/04/13 00:37:35;;;;;;;11.37;4.70;;;;;;;6.30;61.13;94426.91;5027927;28;20231;-73
2023/04/13 00:40:00;;;;;;;12.33;5.00;;;;;;;6.37;62.97;94428.59;5010125;28;20239;-72
2023/04/13 00:42:26;;;;;;;13.00;5.10;;;;;;;6.35;62.27;94429.75;5015770;28;20252;-73
2023/04/13 00:44:52;;;;;;;9.97;4.80;;;;;;;6.35;62.04;94427.97;5014004;28;20232;-72
2023/04/13 00:47:27;;;;;;;11.53;5.07;;;;;;;6.06;63.61;94418.50;5014394;28;20221;-71
2023/04/13 00:49:54;;;;;;;8.57;4.80;;;;;;;6.18;63.05;94418.00;5015746;28;20738;-72
2023/04/13 00:52:20;;;;;;;9.80;4.87;;;;;;;6.21;63.65;94417.63;5014539;28;20288;-71
2023/04/13 00:54:47;;;;;;;9.70;5.00;;;;;;;6.35;62.83;94419.38;5015803;28;20242;-72
2023/04/13 00:57:14;;;;;;;10.13;4.70;;;;;;;6.30;63.19;94419.94;5032317;28;20254;-72
2023/04/13 00:59:40;;;;;;;10.23;4.70;;;;;;;6.37;63.00;94422.59;5019645;28;20234;-72
2023/04/13 01:02:06;;;;;;;12.80;5.23;;;;;;;6.27;63.08;94424.69;5007545;28;20225;-73
2023/04/13 01:04:32;;;;;;;11.00;4.83;;;;;;;6.22;63.97;94433.03;5024348;28;20789;-72
2023/04/13 01:07:07;;;;;;;12.10;5.30;;;;;;;5.78;65.69;94433.09;5013610;28;20295;-72
2023/04/13 01:09:41;;;;;;;10.87;5.20;;;;;;;5.90;65.30;94436.06;5013133;28;20321;-72
2023/04/13 01:12:12;;;;;;;10.27;5.00;;;;;;;5.67;66.71;94440.56;4996361;28;20268;-73
2023/04/13 01:14:47;;;;;;;12.67;5.37;;;;;;;5.60;65.78;94435.31;5029029;28;20237;-72
2023/04/13 01:17:22;;;;;;;12.30;5.40;;;;;;;5.79;66.69;94434.72;5005234;28;20237;-72
2023/04/13 01:19:58;;;;;;;13.43;5.80;;;;;;;6.29;65.41;94438.28;5025013;28;20221;-72
2023/04/13 01:22:27;;;;;;;12.93;5.57;;;;;;;5.95;66.85;94434.53;5028826;28;20279;-72
2023/04/13 01:25:21;;;;;;;13.47;5.53;;;;;;;6.09;66.33;94428.50;4995504;28;20696;-72
2023/04/13 01:27:46;;;;;;;13.27;5.70;;;;;;;5.98;66.07;94428.19;5032855;28;20243;-72
2023/04/13 01:30:15;;;;;;;10.13;4.90;;;;;;;5.86;67.54;94443.44;5030911;28;20230;-72
2023/04/13 01:32:42;;;;;;;12.43;5.10;;;;;;;5.98;66.91;94435.97;5030023;28;20249;-72
2023/04/13 01:35:09;;;;;;;11.57;5.20;;;;;;;6.04;66.57;94422.25;5016894;28;20872;-72
2023/04/13 01:37:40;;;;;;;12.20;5.13;;;;;;;5.90;67.69;94425.69;5033891;28;20239;-72
2023/04/13 01:40:10;;;;;;;11.93;5.13;;;;;;;5.97;66.77;94429.19;5017639;28;20233;-72
2023/04/13 01:42:37;;;;;;;10.40;5.10;;;;;;;5.81;68.32;94427.56;5014674;28;20240;-72
2023/04/13 01:45:04;;;;;;;12.33;5.20;;;;;;;5.68;68.10;94424.00;5014239;28;20312;-72
2023/04/13 01:47:30;;;;;;;14.43;5.40;;;;;;;5.69;68.81;94426.41;5020290;28;20240;-71
2023/04/13 01:50:02;;;;;;;13.13;5.43;;;;;;;5.68;69.59;94426.63;5017667;28;20234;-72
2023/04/13 01:52:28;;;;;;;14.33;5.33;;;;;;;5.93;67.68;94422.72;5008899;28;20237;-72
2023/04/13 01:54:55;;;;;;;10.20;4.80;;;;;;;6.15;66.48;94416.56;4993687;28;20253;-72
2023/04/13 01:57:21;;;;;;;10.47;4.87;;;;;;;5.90;66.44;94420.47;4998262;28;20329;-72
2023/04/13 01:59:46;;;;;;;11.23;4.73;;;;;;;5.92;66.42;94414.13;5008143;28;20308;-72
2023/04/13 02:02:15;;;;;;;12.43;4.50;;;;;;;5.76;67.20;94416.91;5001184;28;20589;-72
2023/04/13 02:04:41;;;;;;;11.67;4.90;;;;;;;5.65;67.46;94416.59;5001077;28;20316;-72
2023/04/13 02:07:07;;;;;;;12.37;4.77;;;;;;;5.61;67.54;94413.56;4997346;28;20616;-72
2023/04/13 02:09:33;;;;;;;10.67;4.60;;;;;;;5.66;68.24;94418.97;5016259;28;20305;-71
2023/04/13 02:11:58;;;;;;;13.03;4.80;;;;;;;5.60;67.14;94424.09;5020294;28;20233;-72
2023/04/13 02:14:24;;;;;;;11.07;4.83;;;;;;;5.82;67.26;94423.19;5030719;28;20229;-72
2023/04/13 02:16:50;;;;;;;11.23;4.43;;;;;;;5.73;67.00;94427.66;5009345;28;20234;-71
2023/04/13 02:19:16;;;;;;;9.73;4.40;;;;;;;5.87;66.29;94431.25;5014786;28;20245;-72
2023/04/13 02:21:41;;;;;;;10.90;4.70;;;;;;;5.57;68.40;94430.47;5016648;28;20233;-71
2023/04/13 02:24:07;;;;;;;9.70;4.60;;;;;;;5.50;67.86;94432.16;5033200;28;20233;-72
2023/04/13 02:26:33;;;;;;;9.43;4.53;;;;;;;5.49;68.11;94438.38;5019468;28;21052;-72
2023/04/13 02:28:59;;;;;;;11.77;4.33;;;;;;;5.32;68.40;94437.75;5036994;28;20233;-72
2023/04/13 02:31:25;;;;;;;13.37;4.80;;;;;;;5.30;70.01;94442.28;5034109;28;20347;-72
2023/04/13 02:33:50;;;;;;;12.97;4.40;;;;;;;5.33;68.80;94441.94;5010387;28;20237;-72
2023/04/13 02:36:17;;;;;;;11.60;4.30;;;;;;;5.23;69.46;94441.38;5020623;28;20749;-72
2023/04/13 02:38:44;;;;;;;14.97;4.23;;;;;;;5.30;70.36;94449.28;5023492;28;20261;-72
2023/04/13 02:41:09;;;;;;;8.57;4.27;;;;;;;5.17;69.69;94444.72;5000428;28;20237;-73
2023/04/13 02:43:35;;;;;;;11.90;4.53;;;;;;;4.59;71.27;94447.19;5024903;28;20730;-73
2023/04/13 02:46:00;;;;;;;12.03;4.40;;;;;;;4.63;72.13;94444.06;5002939;28;20422;-73
2023/04/13 02:48:26;;;;;;;12.20;4.13;;;;;;;4.69;72.19;94442.56;5011944;28;20326;-73
2023/04/13 02:50:52;;;;;;;10.03;3.93;;;;;;;4.76;71.74;94446.91;5008058;28;20234;-72
2023/04/13 02:53:18;;;;;;;9.90;4.40;;;;;;;4.73;71.26;94441.25;5020349;28;20241;-73
2023/04/13 02:55:43;;;;;;;10.43;4.30;;;;;;;4.78;71.99;94453.69;5007322;28;20607;-72
2023/04/13 02:58:10;;;;;;;10.23;3.93;;;;;;;4.51;72.48;94457.66;5018382;28;20234;-74
2023/04/13 03:00:37;;;;;;;11.77;4.20;;;;;;;4.66;73.06;94459.28;5008309;28;20323;-73
2023/04/13 03:03:03;;;;;;;12.03;4.03;;;;;;;4.91;71.60;94457.28;5008051;28;20321;-73
2023/04/13 03:05:31;;;;;;;12.30;4.40;;;;;;;5.04;71.18;94462.66;5003601;28;20256;-73
2023/04/13 03:07:58;;;;;;;10.17;4.37;;;;;;;5.15;70.70;94470.03;5005129;28;20912;-73
2023/04/13 03:10:23;;;;;;;14.00;4.30;;;;;;;4.81;70.53;94463.69;5011552;28;20229;-73
2023/04/13 03:12:49;;;;;;;14.13;4.53;;;;;;;4.85;71.08;94459.78;5025237;28;20237;-72
2023/04/13 03:15:17;;;;;;;10.97;4.13;;;;;;;4.93;71.38;94473.47;5030827;28;20304;-73
2023/04/13 03:17:43;;;;;;;10.20;4.70;;;;;;;4.82;71.02;94470.50;5017623;28;20886;-73
2023/04/13 03:20:11;;;;;;;11.03;4.27;;;;;;;4.59;72.20;94470.50;5000155;28;20226;-71
2023/04/13 03:22:38;;;;;;;11.30;4.30;;;;;;;4.93;71.57;94465.69;4994896;28;20336;-73
2023/04/13 03:25:04;;;;;;;8.37;3.77;;;;;;;4.98;70.25;94460.78;5020330;28;20625;-72
2023/04/13 03:27:30;;;;;;;10.93;3.97;;;;;;;4.67;71.05;94468.69;5017882;28;20287;-72
2023/04/13 03:29:55;;;;;;;11.53;4.60;;;;;;;4.87;70.87;94471.59;5008062;28;20229;-72
2023/04/13 03:32:21;;;;;;;9.57;4.53;;;;;;;4.87;70.99;94468.19;5017597;28;20237;-72
2023/04/13 03:34:46;;;;;;;12.27;4.90;;;;;;;5.19;70.39;94476.47;5014474;28;20230;-73
2023/04/13 03:37:12;;;;;;;12.27;5.07;;;;;;;5.08;70.61;94471.72;5033296;28;20711;-73
2023/04/13 03:39:38;;;;;;;12.80;5.00;;;;;;;4.99;71.74;94477.16;5030864;28;20238;-74
2023/04/13 03:42:03;;;;;;;14.63;6.33;;;;;;;4.77;72.03;94471.03;5011218;28;20309;-72
2023/04/13 03:44:30;;;;;;;13.77;5.63;;;;;;;4.75;72.95;94475.59;4997422;28;20656;-73
2023/04/13 03:46:55;;;;;;;15.87;6.10;;;;;;;4.57;73.54;94481.06;4998612;28;20338;-71
2023/04/13 03:49:21;;;;;;;17.13;6.70;;;;;;;4.48;73.90;94471.75;4995581;28;20235;-73
2023/04/13 03:51:46;;;;;;;20.10;8.30;;;;;;;4.52;73.64;94483.38;4987385;28;20254;-72
2023/04/13 03:54:11;;;;;;;21.47;8.27;;;;;;;4.47;74.19;94483.06;5016349;28;20226;-72
2023/04/13 03:56:37;;;;;;;19.07;7.97;;;;;;;4.45;73.89;94481.63;5008902;28;20241;-73
2023/04/13 03:59:02;;;;;;;24.30;8.20;;;;;;;4.47;74.59;94483.06;5015534;28;20221;-72
2023/04/13 04:01:28;;;;;;;20.23;8.93;;;;;;;4.46;75.42;94485.84;5018761;28;20283;-72
2023/04/13 04:03:55;;;;;;;21.57;9.30;;;;;;;4.54;74.71;94485.78;5027797;28;20237;-72
2023/04/13 04:06:25;;;;;;;25.07;10.23;;;;;;;4.67;74.14;94486.81;5010202;28;20234;-73
2023/04/13 04:08:51;;;;;;;25.93;10.03;;;;;;;4.50;75.61;94481.94;5035128;28;20513;-73
2023/04/13 04:11:16;;;;;;;22.40;9.77;;;;;;;4.68;74.96;94482.44;5016128;28;20820;-72
2023/04/13 04:13:42;;;;;;;24.50;10.50;;;;;;;4.74;74.31;94484.34;5029516;28;20236;-73
2023/04/13 04:16:10;;;;;;;28.60;11.00;;;;;;;4.68;75.26;94485.81;5018117;28;20240;-73
2023/04/13 04:18:35;;;;;;;35.53;11.17;;;;;;;4.81;74.35;94495.59;5012487;28;20237;-73
2023/04/13 04:21:05;;;;;;;26.17;11.27;;;;;;;4.81;75.17;94482.66;5031122;28;20308;-73
2023/04/13 04:23:33;;;;;;;28.10;11.17;;;;;;;4.97;74.25;94482.50;5025090;28;20233;-73
2023/04/13 04:26:01;;;;;;;31.33;12.03;;;;;;;4.68;74.90;94487.63;5000248;28;20234;-73
2023/04/13 04:28:29;;;;;;;28.77;11.60;;;;;;;4.68;76.01;94488.41;4998159;28;20275;-73
2023/04/13 04:30:55;;;;;;;31.47;11.47;;;;;;;4.91;75.26;94493.59;5016574;28;20327;-73
2023/04/13 04:33:23;;;;;;;28.30;11.00;;;;;;;4.96;74.79;94491.28;5005951;28;20711;-73
2023/04/13 04:35:50;;;;;;;24.67;11.07;;;;;;;5.06;74.85;94497.03;5017402;28;20257;-73
2023/04/13 04:38:16;;;;;;;26.50;11.00;;;;;;;5.12;74.29;94498.09;5015721;28;20237;-72
2023/04/13 04:40:44;;;;;;;20.80;9.87;;;;;;;5.15;74.58;94500.34;4991735;28;20249;-73
2023/04/13 04:43:13;;;;;;;26.03;9.80;;;;;;;5.34;74.35;94508.41;5023033;28;20320;-73
2023/04/13 04:45:42;;;;;;;27.03;9.47;;;;;;;5.29;73.59;94505.56;5012885;28;20244;-74
2023/04/13 04:48:10;;;;;;;19.17;8.10;;;;;;;5.47;72.77;94500.81;4998178;28;20313;-73
2023/04/13 04:50:36;;;;;;;24.27;8.57;;;;;;;5.47;73.04;94500.00;4998086;28;20658;-73
2023/04/13 04:53:03;;;;;;;24.47;9.50;;;;;;;5.69;72.46;94500.88;5006718;28;20230;-73
2023/04/13 04:55:28;;;;;;;25.03;10.10;;;;;;;5.42;73.81;94508.31;5030537;28;20244;-73
2023/04/13 04:57:54;;;;;;;22.53;9.80;;;;;;;5.61;72.93;94506.19;5017101;28;20233;-74
2023/04/13 05:00:20;;;;;;;25.33;10.33;;;;;;;5.65;72.50;94505.66;5005805;28;20237;-73
2023/04/13 05:02:47;;;;;;;24.03;8.70;;;;;;;5.92;70.20;94509.44;5028208;28;20399;-74
2023/04/13 05:05:12;;;;;;;21.60;10.03;;;;;;;6.07;71.05;94500.59;5032957;28;20225;-73
2023/04/13 05:07:38;;;;;;;28.63;9.53;;;;;;;8.00;63.44;94514.00;5014336;28;20699;-74
2023/04/13 05:10:06;;;;;;;22.07;9.23;;;;;;;9.91;56.35;94502.78;5006059;28;20237;-74
2023/04/13 05:12:31;;;;;;;24.73;9.30;;;;;;;10.82;53.08;94494.53;5004277;28;20517;-73
2023/04/13 05:14:57;;;;;;;24.07;9.30;;;;;;;11.45;51.25;94507.56;5001490;28;20233;-74
2023/04/13 05:17:24;;;;;;;23.93;10.13;;;;;;;12.44;48.94;94513.41;5001044;28;20240;-74
2023/04/13 05:19:50;;;;;;;24.17;10.73;;;;;;;11.76;48.91;94512.75;5016681;28;20230;-74
2023/04/13 05:22:16;;;;;;;22.90;10.27;;;;;;;12.75;46.59;94517.69;5012993;28;20245;-74
2023/04/13 05:24:41;;;;;;;18.77;6.90;;;;;;;12.77;42.47;94518.25;5016318;28;20245;-74
2023/04/13 05:27:08;;;;;;;10.23;5.30;;;;;;;12.78;41.92;94528.53;5011974;28;20229;-75
2023/04/13 05:29:34;;;;;;;12.53;6.83;;;;;;;13.29;42.95;94512.28;5016000;28;20245;-74
2023/04/13 05:32:00;;;;;;;13.10;5.47;;;;;;;12.35;41.68;94525.22;5016408;28;20271;-72
2023/04/13 05:34:26;;;;;;;12.33;6.30;;;;;;;11.72;46.22;94519.47;5015664;28;20629;-74
2023/04/13 05:36:52;;;;;;;15.53;6.77;;;;;;;11.29;47.80;94519.41;5014834;28;20241;-74
2023/04/13 05:39:19;;;;;;;14.17;5.60;;;;;;;11.64;45.38;94511.84;5028690;28;20222;-74
2023/04/13 05:41:44;;;;;;;14.93;4.90;;;;;;;12.62;44.13;94517.84;5030253;28;20241;-73
2023/04/13 05:44:10;;;;;;;12.33;5.10;;;;;;;11.25;45.24;94512.16;5030946;28;20225;-73
2023/04/13 05:46:35;;;;;;;16.57;5.87;;;;;;;10.80;47.37;94508.84;5019546;28;20268;-73
2023/04/13 05:49:01;;;;;;;13.33;4.87;;;;;;;10.26;46.31;94505.91;5028882;28;20324;-73
2023/04/13 05:51:29;;;;;;;12.23;4.80;;;;;;;9.99;50.21;94510.38;5032350;28;20232;-74
2023/04/13 05:53:58;;;;;;;12.10;5.10;;;;;;;10.13;50.00;94511.97;5018917;28;20227;-74
2023/04/13 05:56:28;;;;;;;15.63;5.40;;;;;;;9.96;48.92;94516.00;5015260;28;20238;-74
2023/04/13 05:58:54;;;;;;;13.83;5.37;;;;;;;10.07;47.84;94510.97;4998214;28;20238;-74
2023/04/13 06:01:19;;;;;;;17.17;5.70;;;;;;;9.95;47.47;94499.56;5007690;28;20234;-73
2023/04/13 06:03:45;;;;;;;11.40;5.47;;;;;;;9.91;47.97;94497.56;5006885;28;20246;-73
2023/04/13 06:06:16;;;;;;;13.27;5.47;;;;;;;10.23;49.09;94508.91;5006561;28;20231;-74
2023/04/13 06:08:41;;;;;;;14.17;6.03;;;;;;;10.06;46.78;94506.75;5009133;28;20757;-73
2023/04/13 06:11:07;;;;;;;17.17;5.73;;;;;;;10.15;48.22;94505.53;5010167;28;20229;-72
2023/04/13 06:13:33;;;;;;;13.73;5.30;;;;;;;10.13;48.63;94510.16;4996162;28;20233;-74
2023/04/13 06:15:59;;;;;;;18.37;5.67;;;;;;;10.01;47.72;94510.97;4984980;28;20304;-75
2023/04/13 06:18:27;;;;;;;12.63;5.90;;;;;;;9.77;47.96;94509.84;5011039;28;20234;-74
2023/04/13 06:20:56;;;;;;;12.67;6.00;;;;;;;10.33;49.09;94510.09;5008892;28;20230;-74
2023/04/13 06:23:21;;;;;;;16.30;6.30;;;;;;;10.34;46.63;94503.84;4998496;28;20509;-73
2023/04/13 06:25:48;;;;;;;19.17;6.90;;;;;;;10.39;47.99;94516.31;4991540;28;20235;-73
2023/04/13 06:28:13;;;;;;;20.60;7.20;;;;;;;10.74;47.85;94510.50;5005676;28;20223;-74
2023/04/13 06:30:39;;;;;;;20.27;7.73;;;;;;;10.08;48.11;94516.97;4989015;28;20227;-73
2023/04/13 06:33:05;;;;;;;17.97;7.00;;;;;;;10.39;48.54;94513.72;5027492;28;20358;-73
2023/04/13 06:35:32;;;;;;;13.13;6.70;;;;;;;10.63;45.94;94515.56;5011147;28;20234;-73
2023/04/13 06:37:58;;;;;;;15.00;7.30;;;;;;;10.66;47.37;94518.59;5010328;28;20242;-74
2023/04/13 06:40:24;;;;;;;15.53;6.50;;;;;;;10.59;46.81;94512.59;5003607;28;20226;-74
2023/04/13 06:42:50;;;;;;;18.60;5.90;;;;;;;10.96;47.64;94515.41;5009520;28;20387;-74
2023/04/13 06:45:16;;;;;;;12.43;4.97;;;;;;;11.09;44.32;94513.50;4986517;28;20226;-74
2023/04/13 06:47:41;;;;;;;11.37;5.33;;;;;;;11.46;43.49;94519.66;5008773;28;20238;-73
2023/04/13 06:50:07;;;;;;;11.37;5.20;;;;;;;11.55;42.97;94514.94;4987502;28;20317;-74
2023/04/13 06:52:33;;;;;;;12.83;5.60;;;;;;;11.40;42.75;94515.25;4994265;28;20716;-74
2023/04/13 06:54:59;;;;;;;14.33;5.30;;;;;;;11.30;42.17;94514.94;5013514;28;20242;-74
2023/04/13 06:57:25;;;;;;;12.47;5.47;;;;;;;11.82;42.35;94511.88;4998276;28;20287;-74
2023/04/13 06:59:50;;;;;;;16.17;5.40;;;;;;;11.13;42.82;94519.13;4995473;28;20237;-73
2023/04/13 07:02:16;;;;;;;13.13;5.67;;;;;;;11.41;42.02;94515.06;4996566;28;20239;-72
2023/04/13 07:04:44;;;;;;;11.83;5.47;;;;;;;11.81;43.06;94509.47;4985813;28;20241;-73
2023/04/13 07:07:10;;;;;;;16.90;5.90;;;;;;;12.16;42.95;94516.56;5012196;28;20234;-73
2023/04/13 07:09:36;;;;;;;12.17;5.47;;;;;;;11.66;41.09;94509.78;5005669;28;20222;-72
2023/04/13 07:12:06;;;;;;;16.50;5.90;;;;;;;11.37;41.73;94507.81;4988677;28;20257;-73
2023/04/13 07:14:38;;;;;;;13.20;5.30;;;;;;;11.71;42.13;94509.16;4989222;28;20234;-73
2023/04/13 07:17:04;;;;;;;11.63;5.40;;;;;;;12.06;40.65;94518.91;5018884;28;20844;-73
2023/04/13 07:19:30;;;;;;;12.97;5.80;;;;;;;12.10;41.62;94511.41;5032468;28;20226;-73
2023/04/13 07:21:57;;;;;;;11.93;5.60;;;;;;;12.05;40.76;94514.69;5014856;28;20218;-74
2023/04/13 07:24:22;;;;;;;13.53;5.30;;;;;;;12.26;41.37;94512.63;5021763;28;20230;-74
2023/04/13 07:26:48;;;;;;;12.73;5.77;;;;;;;12.56;41.41;94510.88;5006385;28;20226;-74
2023/04/13 07:29:16;;;;;;;16.23;5.10;;;;;;;13.10;40.42;94508.13;5016996;28;20617;-74
2023/04/13 07:31:42;;;;;;;15.37;5.47;;;;;;;12.82;39.24;94505.25;5033310;28;20336;-74
2023/04/13 07:34:08;;;;;;;12.27;5.17;;;;;;;13.22;38.94;94503.69;5009628;28;20691;-74
2023/04/13 07:36:33;;;;;;;11.47;5.47;;;;;;;13.40;38.05;94498.34;5042162;28;20753;-74
2023/04/13 07:39:00;;;;;;;12.10;5.60;;;;;;;13.56;39.41;94496.06;5009652;28;20234;-74
2023/04/13 07:41:25;;;;;;;11.77;5.77;;;;;;;13.82;38.69;94490.38;5018308;28;20233;-72
2023/04/13 07:43:51;;;;;;;18.30;6.13;;;;;;;13.57;39.02;94501.09;5016470;28;20249;-73
2023/04/13 07:46:16;;;;;;;11.00;5.23;;;;;;;13.84;38.85;94488.28;5041764;28;20321;-73
2023/04/13 07:48:42;;;;;;;16.67;6.30;;;;;;;13.79;37.06;94482.91;5007406;28;20234;-73
2023/04/13 07:51:18;;;;;;;18.13;6.50;;;;;;;13.82;36.83;94488.53;5005644;28;21016;-73
2023/04/13 07:53:43;;;;;;;13.07;6.60;;;;;;;13.68;37.64;94481.91;5018352;28;20237;-73
2023/04/13 07:56:09;;;;;;;19.57;7.10;;;;;;;13.37;38.66;94477.75;5017093;28;20729;-73
2023/04/13 07:58:34;;;;;;;14.90;6.47;;;;;;;13.65;38.48;94484.19;4996935;28;20241;-73
2023/04/13 08:01:00;;;;;;;13.90;6.43;;;;;;;13.54;38.15;94483.16;4994873;28;20221;-73
2023/04/13 08:03:29;;;;;;;14.60;6.60;;;;;;;13.71;37.66;94478.03;5014573;28;20237;-72
2023/04/13 08:05:55;;;;;;;17.30;6.57;;;;;;;14.08;37.59;94476.72;5013584;28;20322;-73
2023/04/13 08:08:20;;;;;;;16.33;6.47;;;;;;;14.34;37.45;94484.13;4997439;28;20242;-74
2023/04/13 08:10:46;;;;;;;14.30;6.53;;;;;;;14.50;37.47;94474.69;5029958;28;20234;-73
2023/04/13 08:13:12;;;;;;;16.60;6.00;;;;;;;14.77;36.88;94484.44;5030100;28;20254;-73
2023/04/13 08:15:38;;;;;;;14.60;6.20;;;;;;;14.48;37.05;94474.94;5018416;28;20253;-74
2023/04/13 08:18:04;;;;;;;17.77;6.17;;;;;;;14.41;36.35;94473.47;5006089;28;20816;-73
2023/04/13 08:20:29;;;;;;;16.13;6.07;;;;;;;14.59;37.14;94474.06;5015236;28;20695;-73
2023/04/13 08:22:55;;;;;;;11.20;5.93;;;;;;;14.94;37.51;94470.50;5005878;28;20261;-74
2023/04/13 08:25:20;;;;;;;17.77;6.10;;;;;;;15.00;36.87;94459.81;5024984;28;21067;-73
2023/04/13 08:27:46;;;;;;;12.03;6.43;;;;;;;15.29;35.71;94460.53;5012477;28;20233;-73
2023/04/13 08:30:13;;;;;;;13.27;6.13;;;;;;;15.19;35.91;94452.50;5013457;28;20233;-74
2023/04/13 08:32:38;;;;;;;10.57;5.57;;;;;;;15.58;36.99;94454.19;5008166;28;20764;-73
2023/04/13 08:35:08;;;;;;;14.30;6.10;;;;;;;15.40;36.74;94457.06;5031318;28;20229;-74
2023/04/13 08:37:34;;;;;;;12.10;5.73;;;;;;;14.64;36.29;94445.19;5029388;28;20261;-74
2023/04/13 08:39:59;;;;;;;15.30;5.83;;;;;;;14.70;36.41;94452.19;5032307;28;20240;-74
2023/04/13 08:42:29;;;;;;;10.90;5.43;;;;;;;15.06;36.27;94444.88;5031931;28;20343;-74
2023/04/13 08:44:58;;;;;;;18.10;5.57;;;;;;;15.24;36.31;94447.28;5014612;28;20272;-73
2023/04/13 08:47:25;;;;;;;11.10;5.53;;;;;;;15.55;36.09;94438.81;5008640;28;20225;-73
2023/04/13 08:49:50;;;;;;;11.07;5.23;;;;;;;16.01;36.53;94441.06;5038346;28;20335;-74
2023/04/13 08:52:16;;;;;;;14.47;5.80;;;;;;;16.15;36.09;94438.88;5015694;28;20852;-73
2023/04/13 08:54:42;;;;;;;8.70;5.13;;;;;;;16.27;34.73;94436.09;5027950;28;20237;-73
2023/04/13 08:57:09;;;;;;;15.73;5.20;;;;;;;16.28;35.22;94445.63;5028351;28;20225;-73
2023/04/13 08:59:36;;;;;;;11.83;5.00;;;;;;;16.36;35.56;94439.94;5020189;28;20689;-73
2023/04/13 09:02:05;;;;;;;9.83;4.87;;;;;;;16.54;34.74;94435.13;5023089;28;20237;-73
2023/04/13 09:04:30;;;;;;;14.33;5.10;;;;;;;16.54;35.30;94432.50;5023941;28;20263;-73
2023/04/13 09:06:56;;;;;;;11.53;4.40;;;;;;;16.55;34.98;94438.59;5024019;28;20711;-73
2023/04/13 09:09:21;;;;;;;12.77;5.23;;;;;;;16.59;34.49;94434.41;5022127;28;20229;-74
2023/04/13 09:11:47;;;;;;;12.83;5.57;;;;;;;16.70;34.08;94433.44;5001650;28;20237;-74
2023/04/13 09:14:12;;;;;;;16.23;6.47;;;;;;;17.03;34.36;94425.31;5032992;28;20696;-73
2023/04/13 09:16:41;;;;;;;14.50;5.10;;;;;;;16.73;33.71;94419.75;5029953;28;20222;-74
2023/04/13 09:19:07;;;;;;;9.97;5.40;;;;;;;16.96;34.03;94424.72;5022888;28;20236;-74
2023/04/13 09:21:42;;;;;;;13.23;5.90;;;;;;;16.97;34.87;94431.59;5005642;28;20226;-73
2023/04/13 09:24:08;;;;;;;12.40;5.80;;;;;;;17.13;33.81;94425.41;5018052;28;20229;-74
2023/04/13 09:26:47;;;;;;;13.53;5.30;;;;;;;17.15;33.26;94419.84;5017708;28;20733;-73
2023/04/13 09:29:16;;;;;;;20.63;5.50;;;;;;;17.42;33.36;94423.25;5031172;28;20226;-74
2023/04/13 09:31:42;;;;;;;17.90;5.83;;;;;;;17.10;33.21;94412.66;5036669;28;20734;-73
2023/04/13 09:34:08;;;;;;;15.23;7.03;;;;;;;16.72;33.41;94412.84;5015239;28;20221;-73
2023/04/13 09:36:34;;;;;;;16.97;7.00;;;;;;;16.92;34.92;94410.41;5031821;28;20600;-74
2023/04/13 09:38:59;;;;;;;19.57;6.93;;;;;;;17.13;34.71;94401.59;5013429;28;20233;-74
2023/04/13 09:41:39;;;;;;;15.63;6.77;;;;;;;16.81;33.98;94408.72;5019546;28;20238;-74
2023/04/13 09:44:23;;;;;;;18.03;6.73;;;;;;;16.93;34.33;94403.28;5014462;28;20268;-74
2023/04/13 09:47:02;;;;;;;14.70;6.53;;;;;;;17.35;35.02;94389.06;5013537;28;21030;-74
2023/04/13 09:49:40;;;;;;;16.23;7.10;;;;;;;17.76;34.51;94384.88;5031653;28;20242;-74
2023/04/13 09:52:07;;;;;;;19.20;7.40;;;;;;;17.78;35.11;94381.97;5031187;28;20233;-74
2023/04/13 09:54:32;;;;;;;17.50;6.70;;;;;;;17.19;34.17;94384.75;5006256;28;20336;-74
2023/04/13 09:56:58;;;;;;;20.00;6.50;;;;;;;17.26;33.81;94373.94;5013290;28;20329;-73
2023/04/13 09:59:24;;;;;;;15.07;6.70;;;;;;;17.57;35.06;94377.59;5029527;28;20299;-74
2023/04/13 10:01:50;;;;;;;16.93;6.53;;;;;;;17.52;34.04;94369.63;5012140;28;20229;-73
2023/04/13 10:04:16;;;;;;;20.37;7.20;;;;;;;17.41;34.31;94368.75;5013567;28;20222;-74
2023/04/13 10:06:45;;;;;;;16.37;7.03;;;;;;;17.19;35.28;94358.28;5022820;28;20679;-74
2023/04/13 10:09:11;;;;;;;19.40;7.03;;;;;;;17.79;35.05;94367.69;5016506;28;20222;-73
2023/04/13 10:11:40;;;;;;;18.53;6.73;;;;;;;17.71;34.46;94368.16;5013917;28;20230;-73
2023/04/13 10:14:09;;;;;;;12.30;6.03;;;;;;;17.76;35.11;94368.19;5017659;28;20245;-73
2023/04/13 10:17:04;;;;;;;16.57;6.00;;;;;;;18.10;35.47;94367.53;5029057;28;20232;-74
2023/04/13 10:19:31;;;;;;;16.50;5.57;;;;;;;18.20;33.67;94366.78;5013490;28;20238;-73
2023/04/13 10:21:57;;;;;;;13.27;5.70;;;;;;;18.07;33.70;94368.06;4997406;28;20230;-73
2023/04/13 10:24:23;;;;;;;14.73;5.90;;;;;;;18.46;33.94;94349.94;5031311;28;20864;-73
2023/04/13 10:26:53;;;;;;;12.53;5.70;;;;;;;18.56;35.37;94349.16;5018780;28;20239;-73
2023/04/13 10:29:26;;;;;;;14.70;5.77;;;;;;;18.96;34.32;94349.22;5023203;28;20253;-74
2023/04/13 10:31:54;;;;;;;13.47;5.40;;;;;;;18.81;33.10;94349.19;5017006;28;20226;-73
2023/04/13 10:34:24;;;;;;;15.97;5.83;;;;;;;19.29;35.17;94338.06;5006911;28;20232;-73
2023/04/13 10:36:53;;;;;;;12.90;5.30;;;;;;;18.81;32.85;94342.06;5020194;28;20357;-73
2023/04/13 10:39:26;;;;;;;15.13;6.70;;;;;;;19.31;33.99;94343.09;5008251;28;20723;-73
2023/04/13 10:42:01;;;;;;;12.67;5.20;;;;;;;19.14;32.86;94340.72;5018473;28;20233;-74
2023/04/13 10:44:28;;;;;;;14.27;4.90;;;;;;;18.95;32.34;94334.34;5022436;28;20229;-73
2023/04/13 10:46:53;;;;;;;8.83;4.80;;;;;;;18.96;32.52;94330.66;5026989;28;20226;-73
2023/04/13 10:49:29;;;;;;;16.23;5.40;;;;;;;19.13;33.06;94336.47;5035091;28;20232;-74
2023/04/13 10:51:55;;;;;;;9.03;5.07;;;;;;;19.38;32.58;94335.69;5020130;28;20328;-73
2023/04/13 10:54:20;;;;;;;11.07;4.60;;;;;;;19.54;31.49;94336.44;5019387;28;20236;-73
2023/04/13 10:57:02;;;;;;;12.30;5.40;;;;;;;19.21;32.02;94329.81;5020368;28;20708;-73
2023/04/13 10:59:41;;;;;;;15.97;6.60;;;;;;;19.52;32.34;94331.41;5024454;28;20242;-74
2023/04/13 11:02:11;;;;;;;17.27;9.27;;;;;;;19.56;31.83;94321.06;5035026;28;20228;-74
2023/04/13 11:04:38;;;;;;;17.03;6.83;;;;;;;19.61;31.45;94327.13;5023836;28;20623;-74
2023/04/13 11:07:05;;;;;;;10.60;4.80;;;;;;;19.69;31.06;94321.28;4999850;28;20683;-76
2023/04/13 11:09:30;;;;;;;10.90;4.80;;;;;;;19.67;31.33;94323.41;5002886;28;20222;-74
2023/04/13 11:11:56;;;;;;;9.83;4.47;;;;;;;19.63;30.93;94314.38;5034328;28;20241;-74
2023/04/13 11:14:21;;;;;;;11.63;4.57;;;;;;;19.48;31.85;94306.47;5034899;28;20222;-74
2023/04/13 11:16:48;;;;;;;13.00;4.53;;;;;;;19.84;31.66;94305.31;5035168;28;20323;-74
2023/04/13 11:19:13;;;;;;;11.47;4.80;;;;;;;19.93;31.08;94301.00;5017529;28;20248;-74
2023/04/13 11:21:39;;;;;;;9.07;4.37;;;;;;;19.97;31.33;94295.94;4998161;28;20711;-74
2023/04/13 11:24:05;;;;;;;8.67;4.80;;;;;;;19.81;31.52;94295.22;5010314;28;20241;-74
2023/04/13 11:26:32;;;;;;;9.43;4.50;;;;;;;20.11;31.19;94303.03;5037370;28;20249;-73
2023/04/13 11:28:58;;;;;;;13.20;4.67;;;;;;;19.62;32.60;94298.72;5017000;28;20229;-74